Time;durP1;ratioP1;P1;durP2;ratioP2;P2;SDS_P1;SDS_P2;PMS_P1;PMS_P2;Temp;Humidity;BMP_temperature;BMP_pressure;BME280_temperature;BME280_humidity;BME280_pressure;Samples;Min_cycle;Max_cycle;Signal;HPM_P1;HPM_P2
2023/01/18 00:01:37;;;;;;;64.30;35.40;;;;;;;-0.65;81.23;97534.50;208383;1291;142727;-63
2023/01/18 00:06:40;;;;;;;74.30;35.60;;;;;;;-0.71;80.88;97529.31;207839;1294;141641;-65
2023/01/18 00:11:43;;;;;;;71.30;36.80;;;;;;;-0.75;80.93;97526.30;207937;1286;141813;-63
2023/01/18 00:16:46;;;;;;;68.50;39.40;;;;;;;-0.76;81.23;97517.33;210516;1294;141834;-62
2023/01/18 00:21:53;;;;;;;80.00;40.20;;;;;;;-0.76;81.22;97514.75;210557;1282;141544;-63
2023/01/18 00:26:55;;;;;;;73.00;34.30;;;;;;;-0.75;81.38;97500.48;210562;1294;140824;-63
2023/01/18 00:31:57;;;;;;;71.10;35.70;;;;;;;-0.67;81.70;97480.54;210426;1292;140984;-64
2023/01/18 00:37:00;;;;;;;63.70;32.20;;;;;;;-0.61;81.27;97465.56;210418;1295;140484;-64
2023/01/18 00:47:24;;;;;;;75.10;40.00;;;;;;;-0.47;81.46;97462.46;209606;1286;141660;-64
2023/01/18 00:52:28;;;;;;;76.20;41.30;;;;;;;-0.44;81.38;97456.31;208508;1288;139678;-64
2023/01/18 00:57:32;;;;;;;79.70;39.30;;;;;;;-0.45;81.46;97452.41;209489;1285;141309;-66
2023/01/18 01:02:41;;;;;;;68.20;33.70;;;;;;;-0.42;81.74;97444.23;208803;1291;141822;-65
2023/01/18 01:07:48;;;;;;;67.20;32.40;;;;;;;-0.35;81.69;97436.67;209531;1291;142232;-64
2023/01/18 01:28:59;;;;;;;57.40;30.60;;;;;;;-0.22;82.17;97445.50;208080;1292;140712;-64
2023/01/18 01:34:01;;;;;;;56.70;29.20;;;;;;;-0.16;82.38;97443.71;207672;1282;141025;-63
2023/01/18 01:39:05;;;;;;;55.40;28.70;;;;;;;-0.13;82.39;97434.23;208555;1285;141452;-64
2023/01/18 01:44:24;;;;;;;48.40;32.40;;;;;;;-0.11;82.17;97429.10;208785;1286;141836;-64
2023/01/18 01:49:30;;;;;;;;;;;;;;;-0.10;82.21;97429.20;208284;1292;140915;-64
2023/01/18 01:55:03;;;;;;;66.90;32.10;;;;;;;-0.11;82.28;97427.00;208434;1285;126604;-64
2023/01/18 02:00:10;;;;;;;58.00;28.20;;;;;;;-0.10;82.55;97422.31;209643;1294;140248;-64
2023/01/18 02:05:16;;;;;;;;;;;;;;;-0.06;82.69;97416.98;209168;1294;140329;-64
2023/01/18 02:10:18;;;;;;;55.60;28.10;;;;;;;0.02;82.88;97412.95;209473;1278;126997;-64
2023/01/18 02:15:25;;;;;;;40.90;20.00;;;;;;;0.13;83.12;97404.89;209832;1286;142255;-63
2023/01/18 02:20:31;;;;;;;33.60;19.80;;;;;;;0.31;83.21;97393.92;210149;1292;140979;-63
2023/01/18 02:26:12;;;;;;;33.50;17.90;;;;;;;0.50;82.77;97386.85;210559;1298;140460;-64
2023/01/18 02:31:21;;;;;;;36.70;18.60;;;;;;;0.69;82.84;97385.13;210639;1288;222435;-64
2023/01/18 02:36:48;;;;;;;30.30;16.30;;;;;;;0.84;82.73;97387.89;210787;1294;140868;-67
2023/01/18 02:47:22;;;;;;;25.60;15.20;;;;;;;1.12;82.15;97376.92;207610;1298;140787;-66
2023/01/18 02:52:46;;;;;;;24.20;16.50;;;;;;;1.18;82.03;97376.05;208664;1292;139883;-63
2023/01/18 02:57:55;;;;;;;28.90;15.10;;;;;;;1.22;82.20;97382.79;209556;1290;139728;-65
2023/01/18 03:03:00;;;;;;;24.50;13.60;;;;;;;1.28;81.68;97383.37;209367;1294;140759;-66
2023/01/18 03:08:14;;;;;;;23.50;14.70;;;;;;;1.36;81.58;97383.02;209790;1294;141023;-67
2023/01/18 03:13:33;;;;;;;20.00;14.10;;;;;;;1.46;81.71;97378.81;208406;1292;140874;-66
2023/01/18 03:24:30;;;;;;;50.70;22.90;;;;;;;1.55;81.17;97380.10;207512;1292;223138;-66
2023/01/18 03:35:16;;;;;;;37.40;16.70;;;;;;;1.62;81.06;97381.45;209154;1286;140194;-64
2023/01/18 03:40:26;;;;;;;39.00;16.80;;;;;;;1.66;80.77;97369.50;209404;1294;140730;-64
2023/01/18 03:45:48;;;;;;;39.20;18.40;;;;;;;1.70;80.72;97369.21;209633;1279;141084;-63
2023/01/18 03:50:59;;;;;;;29.30;15.50;;;;;;;1.73;80.54;97364.95;209080;1294;141126;-63
2023/01/18 03:56:15;;;;;;;25.10;14.10;;;;;;;1.76;80.64;97363.64;208356;1292;141819;-63
2023/01/18 04:01:19;;;;;;;27.00;15.30;;;;;;;1.78;80.40;97366.99;209512;1285;139947;-64
2023/01/18 04:06:22;;;;;;;29.00;17.80;;;;;;;1.78;80.39;97364.16;209533;1282;139682;-65
2023/01/18 04:11:25;;;;;;;30.60;16.20;;;;;;;1.81;80.65;97359.44;209323;1292;142147;-64
2023/01/18 04:16:29;;;;;;;24.50;16.20;;;;;;;1.84;80.42;97354.11;208121;1286;140105;-63
2023/01/18 04:21:33;;;;;;;32.90;20.30;;;;;;;1.84;80.59;97355.33;210672;1287;140645;-64
2023/01/18 04:26:36;;;;;;;32.80;15.60;;;;;;;1.82;80.51;97356.55;210794;1292;140646;-63
2023/01/18 04:31:38;;;;;;;29.20;16.50;;;;;;;1.81;80.54;97355.92;210082;1287;141337;-63
2023/01/18 04:36:41;;;;;;;36.00;17.90;;;;;;;1.82;80.76;97353.61;210595;1294;140284;-63
2023/01/18 04:41:44;;;;;;;31.30;18.10;;;;;;;1.82;80.45;97358.36;210423;1295;141227;-64
2023/01/18 04:46:47;;;;;;;31.20;15.70;;;;;;;1.86;80.85;97361.65;209817;1294;140737;-64
2023/01/18 04:51:52;;;;;;;31.30;18.60;;;;;;;1.90;81.05;97370.81;209013;1286;140296;-64
2023/01/18 04:56:55;;;;;;;32.40;18.20;;;;;;;1.89;81.01;97352.04;209545;1293;140798;-63
2023/01/18 05:01:58;;;;;;;35.80;20.50;;;;;;;1.85;80.82;97340.45;209024;1289;140022;-66
2023/01/18 05:07:01;;;;;;;44.10;22.60;;;;;;;1.85;81.09;97327.65;209372;1278;140597;-66
2023/01/18 05:12:03;;;;;;;46.30;21.10;;;;;;;1.83;81.09;97308.28;209320;1292;140385;-65
2023/01/18 05:17:06;;;;;;;29.00;15.20;;;;;;;1.76;81.27;97303.92;208802;1278;141681;-65
2023/01/18 05:22:10;;;;;;;26.40;17.00;;;;;;;1.74;81.59;97295.59;208067;1292;140703;-65
2023/01/18 05:27:13;;;;;;;24.30;13.60;;;;;;;1.73;81.62;97277.97;208068;1286;140420;-64
2023/01/18 05:32:17;;;;;;;24.90;14.90;;;;;;;1.65;81.96;97287.50;207972;1292;153747;-64
2023/01/18 05:37:21;;;;;;;26.00;16.80;;;;;;;1.59;82.11;97297.53;207919;1285;140954;-63
2023/01/18 05:42:25;;;;;;;25.20;16.30;;;;;;;1.54;82.08;97308.10;208265;1295;141386;-66
2023/01/18 05:47:28;;;;;;;24.30;15.10;;;;;;;1.52;82.30;97315.86;209057;1292;141338;-64
2023/01/18 05:52:32;;;;;;;25.20;15.60;;;;;;;1.55;82.58;97312.11;208068;1285;142747;-65
2023/01/18 05:57:37;;;;;;;22.00;13.70;;;;;;;1.54;82.53;97309.73;209329;1295;139997;-65
2023/01/18 06:02:39;;;;;;;24.90;14.60;;;;;;;1.50;82.64;97307.58;208843;1279;142628;-65
2023/01/18 06:07:42;;;;;;;21.40;13.40;;;;;;;1.47;82.86;97316.03;210373;1295;142030;-65
2023/01/18 06:12:46;;;;;;;28.60;16.90;;;;;;;1.46;82.74;97318.06;208694;1292;139962;-65
2023/01/18 06:17:50;;;;;;;28.60;18.30;;;;;;;1.48;82.82;97317.73;208918;1288;140226;-65
2023/01/18 06:22:54;;;;;;;27.60;16.80;;;;;;;1.47;82.99;97308.11;210695;1294;140146;-63
2023/01/18 06:27:56;;;;;;;26.30;16.90;;;;;;;1.47;83.15;97302.42;210855;1295;141282;-64
2023/01/18 06:33:05;;;;;;;29.40;17.90;;;;;;;1.43;83.22;97294.11;209947;1294;141479;-64
2023/01/18 06:38:09;;;;;;;33.80;18.00;;;;;;;1.40;83.11;97287.39;210513;1279;141029;-64
2023/01/18 06:43:12;;;;;;;25.50;16.00;;;;;;;1.35;83.09;97288.77;208807;1292;152990;-66
2023/01/18 06:48:16;;;;;;;32.10;18.00;;;;;;;1.31;83.04;97299.60;209342;1292;140146;-64
2023/01/18 06:53:20;;;;;;;33.50;19.30;;;;;;;1.31;83.52;97313.41;208748;1292;140951;-63
2023/01/18 06:58:24;;;;;;;35.80;20.40;;;;;;;1.33;83.55;97317.49;208935;1291;140521;-63
2023/01/18 07:03:28;;;;;;;30.80;16.30;;;;;;;1.36;83.73;97313.89;207865;1295;140226;-64
2023/01/18 07:08:32;;;;;;;28.00;16.90;;;;;;;1.40;84.10;97301.41;209165;1286;139989;-64
2023/01/18 07:13:42;;;;;;;25.60;19.00;;;;;;;1.41;83.65;97288.19;208055;1286;140813;-63
2023/01/18 07:18:47;;;;;;;26.20;16.00;;;;;;;1.37;83.92;97280.35;208419;1285;139573;-65
2023/01/18 07:23:52;;;;;;;28.70;17.10;;;;;;;1.33;83.87;97274.14;208447;1301;139831;-67
2023/01/18 07:28:56;;;;;;;26.00;18.40;;;;;;;1.33;83.70;97281.80;209305;1286;140007;-66
2023/01/18 07:33:59;;;;;;;24.70;17.40;;;;;;;1.33;84.27;97292.62;207706;1294;140242;-65
2023/01/18 07:39:02;;;;;;;29.40;19.10;;;;;;;1.34;84.48;97300.55;208347;1292;139522;-65
2023/01/18 07:44:05;;;;;;;29.60;16.90;;;;;;;1.34;84.24;97300.36;208637;1279;140826;-63
2023/01/18 07:49:07;;;;;;;33.90;18.10;;;;;;;1.36;84.25;97288.89;209289;1293;142223;-65
2023/01/18 07:54:10;;;;;;;29.10;16.60;;;;;;;1.40;84.45;97282.66;209164;1284;140976;-63
2023/01/18 07:59:14;;;;;;;39.50;21.10;;;;;;;1.46;84.59;97270.96;208915;1278;234704;-66
2023/01/18 08:04:17;;;;;;;27.40;17.20;;;;;;;1.49;84.31;97252.63;208987;1285;141459;-64
2023/01/18 08:09:20;;;;;;;30.20;17.80;;;;;;;1.46;84.47;97257.63;210253;1295;140751;-66
2023/01/18 08:14:22;;;;;;;28.00;18.20;;;;;;;1.48;84.92;97253.52;208063;1284;143228;-63
2023/01/18 08:19:25;;;;;;;23.30;16.10;;;;;;;1.50;84.81;97245.05;208208;1284;141479;-65
2023/01/18 08:24:28;;;;;;;27.40;19.00;;;;;;;1.56;84.67;97244.08;210491;1294;221958;-65
2023/01/18 08:29:30;;;;;;;29.10;16.50;;;;;;;1.63;84.93;97247.14;210300;1295;140455;-63
2023/01/18 08:34:33;;;;;;;22.00;15.40;;;;;;;1.69;84.90;97242.61;209470;1291;300300;-64
2023/01/18 08:39:37;;;;;;;21.80;14.40;;;;;;;1.71;84.75;97241.80;210321;1302;144049;-65
2023/01/18 08:44:40;;;;;;;29.80;16.60;;;;;;;1.67;84.79;97242.89;210410;1294;229829;-66
2023/01/18 08:49:43;;;;;;;26.00;15.10;;;;;;;1.70;84.77;97251.67;208782;1281;142140;-65
2023/01/18 08:54:46;;;;;;;27.30;16.80;;;;;;;1.78;84.77;97244.39;209226;1285;141367;-64
2023/01/18 08:59:51;;;;;;;25.70;16.00;;;;;;;1.78;84.81;97234.77;207962;1292;141695;-63
2023/01/18 09:04:54;;;;;;;28.80;15.00;;;;;;;1.76;84.88;97230.45;208912;1292;141784;-63
2023/01/18 09:09:57;;;;;;;21.60;13.70;;;;;;;1.77;84.98;97229.05;208759;1292;141490;-64
2023/01/18 09:15:00;;;;;;;23.70;13.70;;;;;;;1.75;84.96;97231.73;209203;1294;140257;-63
2023/01/18 09:20:08;;;;;;;25.90;13.40;;;;;;;1.76;84.92;97227.07;210263;1294;140487;-64
2023/01/18 09:25:12;;;;;;;20.30;12.10;;;;;;;1.83;85.10;97232.69;207742;1285;144279;-65
2023/01/18 09:30:16;;;;;;;23.70;13.70;;;;;;;1.84;85.22;97240.59;208561;1292;140606;-67
2023/01/18 09:35:19;;;;;;;22.00;12.30;;;;;;;1.83;84.99;97249.50;209205;1278;140233;-66
2023/01/18 09:40:26;;;;;;;20.80;13.90;;;;;;;1.87;85.18;97254.40;207967;1285;140354;-66
2023/01/18 09:45:34;;;;;;;18.30;10.00;;;;;;;1.91;85.06;97243.84;207515;1286;140804;-65
2023/01/18 09:50:44;;;;;;;22.80;11.70;;;;;;;1.88;85.08;97235.64;209233;1292;140983;-64
2023/01/18 09:55:55;;;;;;;15.30;10.00;;;;;;;1.88;85.44;97241.73;208892;1284;140885;-64
2023/01/18 10:01:04;;;;;;;18.90;11.60;;;;;;;1.92;85.24;97243.12;208458;1285;139951;-65
2023/01/18 10:06:14;;;;;;;31.50;16.90;;;;;;;1.98;85.49;97252.26;208533;1293;142066;-64
2023/01/18 10:11:21;;;;;;;28.00;14.80;;;;;;;2.06;85.53;97258.58;209433;1285;140874;-65
2023/01/18 10:16:24;;;;;;;25.00;15.90;;;;;;;2.10;85.25;97258.42;209439;1285;141236;-66
2023/01/18 10:21:40;;;;;;;28.60;15.40;;;;;;;2.11;85.23;97249.09;210522;1288;141083;-66
2023/01/18 10:26:47;;;;;;;23.70;14.00;;;;;;;2.10;85.12;97246.86;210563;1295;140579;-67
2023/01/18 10:31:58;;;;;;;32.20;17.40;;;;;;;2.11;85.00;97243.09;210392;1291;142458;-65
2023/01/18 10:37:13;;;;;;;23.80;14.70;;;;;;;2.16;84.85;97247.08;210659;1295;140686;-67
2023/01/18 10:42:43;;;;;;;31.70;17.90;;;;;;;2.15;85.06;97236.30;209523;1284;140260;-69
2023/01/18 10:47:47;;;;;;;30.40;18.10;;;;;;;2.12;84.76;97237.39;209368;1284;140214;-70
2023/01/18 10:52:50;;;;;;;33.90;19.40;;;;;;;2.13;84.92;97245.96;207484;1282;139954;-70
2023/01/18 10:57:53;;;;;;;29.60;18.30;;;;;;;2.08;84.92;97249.26;209718;1294;142872;-69
2023/01/18 11:02:58;;;;;;;28.40;16.70;;;;;;;2.06;84.90;97254.57;208162;1292;139805;-68
2023/01/18 11:08:21;;;;;;;27.20;17.10;;;;;;;2.03;84.89;97246.98;207349;1291;142539;-69
2023/01/18 11:13:26;;;;;;;25.80;15.40;;;;;;;2.02;84.89;97244.84;207834;1286;140337;-67
2023/01/18 11:18:28;;;;;;;25.20;13.30;;;;;;;1.98;85.25;97249.30;209949;1301;139899;-66
2023/01/18 11:23:36;;;;;;;20.40;11.20;;;;;;;1.97;84.93;97252.39;208093;1292;139875;-65
2023/01/18 11:28:44;;;;;;;23.20;13.80;;;;;;;1.98;85.07;97249.20;208472;1286;142444;-65
2023/01/18 11:34:07;;;;;;;17.80;11.50;;;;;;;1.98;85.25;97262.02;208075;1298;140317;-64
2023/01/18 11:39:17;;;;;;;19.50;11.20;;;;;;;1.93;85.21;97265.77;208476;1292;139729;-63
2023/01/18 11:44:29;;;;;;;22.20;13.80;;;;;;;2.00;85.36;97260.90;209082;1292;141310;-63
2023/01/18 11:49:44;;;;;;;20.60;12.20;;;;;;;2.08;85.56;97259.70;207847;1292;140251;-66
2023/01/18 11:54:54;;;;;;;20.10;12.00;;;;;;;2.09;85.61;97265.82;208916;1296;140215;-66
2023/01/18 11:59:58;;;;;;;16.60;9.80;;;;;;;2.14;85.72;97274.29;209300;1294;139590;-66
2023/01/18 12:05:21;;;;;;;14.80;8.50;;;;;;;2.20;85.45;97273.42;209389;1285;141188;-67
2023/01/18 12:10:31;;;;;;;17.40;11.00;;;;;;;2.27;85.38;97273.64;208761;1286;139831;-68
2023/01/18 12:15:40;;;;;;;15.50;9.60;;;;;;;2.31;85.60;97276.44;210356;1278;139814;-64
2023/01/18 12:21:02;;;;;;;15.50;9.30;;;;;;;2.35;85.61;97284.17;210534;1295;139107;-64
2023/01/18 12:26:46;;;;;;;15.50;9.80;;;;;;;2.46;85.11;97302.71;210359;1295;140673;-66
2023/01/18 12:32:12;;;;;;;18.00;10.70;;;;;;;2.49;85.36;97315.11;210482;1299;246172;-66
2023/01/18 12:37:42;;;;;;;19.00;9.60;;;;;;;2.51;85.16;97317.50;210674;1293;141709;-64
2023/01/18 12:42:51;;;;;;;17.10;9.80;;;;;;;2.48;84.69;97322.04;209576;1299;139467;-64
2023/01/18 12:48:04;;;;;;;22.60;11.70;;;;;;;2.50;84.55;97327.23;210352;1293;140708;-69
2023/01/18 12:53:48;;;;;;;24.90;13.20;;;;;;;2.48;84.43;97329.30;209934;1302;141167;-64
2023/01/18 12:58:59;;;;;;;42.20;21.30;;;;;;;2.38;84.09;97347.10;207715;1300;219963;-65
2023/01/18 13:04:16;;;;;;;31.20;18.80;;;;;;;2.27;83.99;97354.55;209940;1295;139878;-67
2023/01/18 13:09:27;;;;;;;29.90;19.30;;;;;;;2.21;83.84;97356.83;208769;1292;140415;-67
2023/01/18 13:15:04;;;;;;;33.70;21.70;;;;;;;2.16;83.89;97369.88;207947;1286;139940;-62
2023/01/18 13:20:10;;;;;;;25.10;15.00;;;;;;;2.12;84.16;97384.48;207584;1293;140478;-66
2023/01/18 13:25:37;;;;;;;22.10;14.40;;;;;;;2.01;83.70;97382.94;208137;1292;139365;-66
2023/01/18 13:30:59;;;;;;;19.80;12.60;;;;;;;1.91;83.70;97380.17;208161;1286;226913;-64
2023/01/18 13:36:10;;;;;;;22.30;14.30;;;;;;;1.90;83.87;97386.17;208684;1294;140450;-63
2023/01/18 13:41:15;;;;;;;20.00;12.40;;;;;;;1.93;84.14;97399.49;208915;1301;140344;-67
2023/01/18 13:46:23;;;;;;;23.20;14.60;;;;;;;1.86;83.93;97416.09;208115;1284;142269;-68
2023/01/18 13:51:39;;;;;;;22.10;14.70;;;;;;;1.78;84.25;97425.93;209307;1291;247115;-67
2023/01/18 13:57:04;;;;;;;23.20;14.20;;;;;;;1.71;83.91;97429.52;209295;1292;140719;-65
2023/01/18 14:02:32;;;;;;;24.50;13.70;;;;;;;1.72;84.31;97437.99;208979;1291;141277;-64
2023/01/18 14:07:42;;;;;;;28.80;17.60;;;;;;;1.71;83.90;97447.85;210202;1292;140693;-66
2023/01/18 14:12:52;;;;;;;18.50;12.80;;;;;;;1.71;84.35;97452.63;209733;1298;140302;-63
2023/01/18 14:17:57;;;;;;;21.90;14.20;;;;;;;1.68;84.10;97462.77;210002;1298;140513;-68
2023/01/18 14:23:26;;;;;;;26.70;15.60;;;;;;;1.66;84.33;97472.80;210335;1301;139988;-72
2023/01/18 14:28:54;;;;;;;19.10;14.40;;;;;;;1.73;84.06;97487.51;210634;1287;231636;-70
2023/01/18 14:34:18;;;;;;;45.70;25.30;;;;;;;1.74;84.13;97504.65;210641;1294;141212;-68
2023/01/18 14:39:22;;;;;;;50.90;27.30;;;;;;;1.75;84.25;97513.77;210630;1298;139718;-67
2023/01/18 14:44:39;;;;;;;44.90;24.40;;;;;;;1.73;84.32;97516.02;210080;1298;153864;-68
2023/01/18 14:50:03;;;;;;;34.60;19.30;;;;;;;1.72;84.24;97526.46;208801;1298;234980;-67
2023/01/18 14:55:22;;;;;;;34.40;23.20;;;;;;;1.71;84.01;97533.52;209487;1295;142060;-67
2023/01/18 15:00:27;;;;;;;37.70;22.10;;;;;;;1.71;84.14;97548.06;208778;1286;140019;-63
2023/01/18 15:05:30;;;;;;;31.90;20.40;;;;;;;1.63;83.97;97570.34;209095;1295;140643;-67
2023/01/18 15:10:34;;;;;;;24.80;16.60;;;;;;;1.58;84.29;97581.78;209042;1275;140456;-62
2023/01/18 15:15:41;;;;;;;26.80;17.70;;;;;;;1.59;84.21;97588.36;208371;1298;223338;-65
2023/01/18 15:20:55;;;;;;;27.30;19.70;;;;;;;1.57;84.00;97589.95;207914;1285;140681;-63
2023/01/18 15:25:59;;;;;;;28.50;18.60;;;;;;;1.56;84.45;97604.73;208671;1289;139770;-63
2023/01/18 15:31:15;;;;;;;28.00;20.70;;;;;;;1.54;84.60;97630.38;208286;1278;140248;-65
2023/01/18 15:36:18;;;;;;;31.00;18.40;;;;;;;1.56;84.55;97638.13;209573;1293;140518;-67
2023/01/18 15:41:22;;;;;;;33.30;20.30;;;;;;;1.54;84.78;97647.34;208598;1289;140458;-67
2023/01/18 15:46:27;;;;;;;36.40;20.90;;;;;;;1.46;84.62;97661.50;208058;1279;151884;-66
2023/01/18 15:51:55;;;;;;;43.20;20.50;;;;;;;1.42;84.60;97669.80;208336;1292;140157;-66
2023/01/18 15:57:17;;;;;;;35.60;23.00;;;;;;;1.43;84.66;97682.39;208823;1291;141108;-67
2023/01/18 16:02:22;;;;;;;35.70;21.80;;;;;;;1.42;84.72;97695.05;209351;1291;140840;-63
2023/01/18 16:07:40;;;;;;;39.90;22.50;;;;;;;1.43;84.82;97703.11;209890;1284;141994;-65
2023/01/18 16:12:47;;;;;;;38.20;21.70;;;;;;;1.40;84.55;97713.02;208463;1292;140667;-63
2023/01/18 16:17:54;;;;;;;39.00;24.00;;;;;;;1.32;84.69;97724.51;210003;1295;140810;-62
2023/01/18 16:23:07;;;;;;;42.10;23.50;;;;;;;1.34;84.79;97742.21;210549;1295;140776;-67
2023/01/18 16:28:11;;;;;;;30.60;18.80;;;;;;;1.38;85.13;97756.90;210721;1295;141006;-67
2023/01/18 16:33:17;;;;;;;36.80;21.50;;;;;;;1.36;84.62;97767.30;210613;1291;140794;-63
2023/01/18 16:38:23;;;;;;;40.70;21.40;;;;;;;1.34;84.53;97773.50;210014;1295;140584;-63
2023/01/18 16:43:31;;;;;;;35.90;21.10;;;;;;;1.32;84.58;97785.00;209757;1292;140380;-64
2023/01/18 16:48:35;;;;;;;27.80;18.10;;;;;;;1.30;84.85;97795.61;209866;1295;139976;-65
2023/01/18 16:53:43;;;;;;;25.20;18.40;;;;;;;1.26;84.68;97802.11;209808;1285;140111;-65
2023/01/18 16:58:48;;;;;;;27.80;17.20;;;;;;;1.25;85.07;97810.00;209237;1291;140070;-65
2023/01/18 17:03:53;;;;;;;28.80;16.60;;;;;;;1.30;84.74;97821.96;208867;1294;140940;-64
2023/01/18 17:08:57;;;;;;;24.40;15.60;;;;;;;1.29;84.87;97828.37;208406;1284;140368;-65
2023/01/18 17:14:10;;;;;;;28.40;16.10;;;;;;;1.21;84.90;97842.38;208235;1292;143104;-65
2023/01/18 17:19:22;;;;;;;26.40;16.70;;;;;;;1.19;84.77;97850.08;208580;1294;140326;-64
2023/01/18 17:24:27;;;;;;;27.40;17.80;;;;;;;1.20;85.16;97857.70;209494;1295;140526;-63
2023/01/18 17:29:33;;;;;;;25.40;17.70;;;;;;;1.15;85.45;97859.25;208536;1293;140003;-63
2023/01/18 17:34:38;;;;;;;24.30;17.40;;;;;;;1.15;85.18;97873.09;208150;1284;140309;-66
2023/01/18 17:39:42;;;;;;;30.30;17.90;;;;;;;1.19;85.36;97878.45;209517;1298;139965;-66
2023/01/18 17:45:02;;;;;;;34.80;22.00;;;;;;;1.22;85.55;97884.89;208085;1284;140575;-65
2023/01/18 17:50:13;;;;;;;29.10;18.70;;;;;;;1.20;85.59;97892.92;209091;1285;140246;-65
2023/01/18 17:55:16;;;;;;;29.80;18.10;;;;;;;1.18;85.40;97909.08;208996;1291;141169;-66
2023/01/18 18:00:26;;;;;;;29.60;19.60;;;;;;;1.20;85.57;97912.89;207714;1284;204714;-67
2023/01/18 18:05:29;;;;;;;35.30;21.20;;;;;;;1.22;85.63;97912.92;208793;1286;140044;-66
2023/01/18 18:10:32;;;;;;;35.20;20.50;;;;;;;1.23;85.77;97923.80;210001;1286;140244;-67
2023/01/18 18:15:34;;;;;;;35.50;21.50;;;;;;;1.22;85.27;97940.63;209340;1291;140652;-67
2023/01/18 18:20:37;;;;;;;35.10;22.60;;;;;;;1.22;85.48;97958.06;210515;1281;143411;-66
2023/01/18 18:25:44;;;;;;;38.00;22.00;;;;;;;1.25;85.26;97978.90;210377;1294;140071;-65
2023/01/18 18:30:47;;;;;;;41.00;22.20;;;;;;;1.27;85.70;97996.02;210534;1295;140147;-65
2023/01/18 18:35:50;;;;;;;39.40;23.20;;;;;;;1.27;85.63;98011.11;208241;1291;140103;-61
2023/01/18 18:40:53;;;;;;;46.10;25.00;;;;;;;1.29;85.63;98033.39;208066;1292;140269;-63
2023/01/18 18:45:56;;;;;;;45.30;23.80;;;;;;;1.32;85.55;98048.30;208488;1298;140830;-63
2023/01/18 18:50:59;;;;;;;50.10;26.90;;;;;;;1.31;85.55;98065.27;208995;1292;140517;-65
2023/01/18 18:56:08;;;;;;;51.80;28.70;;;;;;;1.27;85.83;98078.27;208833;1294;140230;-63
2023/01/18 19:01:22;;;;;;;62.80;31.20;;;;;;;1.23;85.65;98083.84;209575;1287;140607;-67
2023/01/18 19:06:27;;;;;;;56.00;30.80;;;;;;;1.28;85.82;98086.73;208866;1284;141579;-62
2023/01/18 19:11:35;;;;;;;59.10;29.30;;;;;;;1.32;85.83;98093.86;209326;1278;141306;-65
2023/01/18 19:16:42;;;;;;;46.70;25.50;;;;;;;1.33;85.70;98095.10;209303;1285;247546;-63
2023/01/18 19:21:50;;;;;;;58.10;30.10;;;;;;;1.30;85.51;98093.67;209335;1292;236279;-62
2023/01/18 19:26:53;;;;;;;55.00;33.10;;;;;;;1.28;85.79;98094.41;208500;1284;141106;-62
2023/01/18 19:32:00;;;;;;;70.30;35.20;;;;;;;1.32;85.61;98092.37;207767;1292;140018;-62
2023/01/18 19:37:06;;;;;;;66.80;33.20;;;;;;;1.33;85.89;98083.96;209013;1285;140650;-63
2023/01/18 19:42:15;;;;;;;67.70;34.60;;;;;;;1.37;86.16;98103.15;208292;1285;139381;-66
2023/01/18 19:47:28;;;;;;;67.90;36.20;;;;;;;1.38;85.95;98110.41;208740;1285;141507;-66
2023/01/18 19:52:52;;;;;;;69.10;32.90;;;;;;;1.34;85.87;98128.20;209308;1292;221582;-65
2023/01/18 19:58:23;;;;;;;73.10;36.50;;;;;;;1.36;86.15;98140.48;207583;1293;141243;-65
2023/01/18 20:03:46;;;;;;;70.30;34.50;;;;;;;1.42;86.14;98150.09;209743;1292;142412;-67
2023/01/18 20:09:16;;;;;;;64.80;32.70;;;;;;;1.49;86.01;98173.42;209588;1290;140306;-66
2023/01/18 20:14:25;;;;;;;73.50;34.90;;;;;;;1.47;85.94;98184.11;209824;1302;139511;-64
2023/01/18 20:19:44;;;;;;;72.30;34.90;;;;;;;1.44;85.86;98189.90;210485;1286;244233;-64
2023/01/18 20:24:47;;;;;;;66.90;35.40;;;;;;;1.47;85.71;98198.20;210279;1291;141715;-63
2023/01/18 20:29:51;;;;;;;73.70;38.40;;;;;;;1.54;86.02;98205.77;210385;1291;140231;-63
2023/01/18 20:34:54;;;;;;;69.20;35.60;;;;;;;1.56;85.94;98201.30;210283;1295;425171;-62
2023/01/18 20:39:59;;;;;;;78.00;34.80;;;;;;;1.56;85.96;98204.58;209913;1294;139186;-62
2023/01/18 20:45:03;;;;;;;78.30;36.00;;;;;;;1.61;86.04;98218.33;208707;1292;140828;-63
2023/01/18 20:50:06;;;;;;;70.10;34.50;;;;;;;1.62;85.87;98229.67;209331;1292;141345;-65
2023/01/18 20:55:12;;;;;;;61.70;32.90;;;;;;;1.62;85.73;98237.27;209771;1292;140993;-64
2023/01/18 21:00:29;;;;;;;62.90;33.40;;;;;;;1.57;85.40;98257.95;209342;1292;140369;-64
2023/01/18 21:05:44;;;;;;;65.40;30.50;;;;;;;1.51;85.71;98271.74;209130;1294;247989;-64
2023/01/18 21:10:47;;;;;;;70.80;36.10;;;;;;;1.53;85.74;98264.55;208748;1294;140806;-65
2023/01/18 21:15:56;;;;;;;70.00;33.30;;;;;;;1.57;86.01;98274.23;208115;1292;140869;-63
2023/01/18 21:20:59;;;;;;;72.60;34.10;;;;;;;1.59;86.14;98272.73;207605;1285;141695;-63
2023/01/18 21:26:03;;;;;;;63.40;31.10;;;;;;;1.60;86.20;98277.48;207703;1281;140682;-64
2023/01/18 21:31:08;;;;;;;65.30;31.40;;;;;;;1.60;85.89;98279.66;208166;1284;142282;-63
2023/01/18 21:36:18;;;;;;;80.60;33.60;;;;;;;1.59;86.02;98288.92;208775;1281;140532;-65
2023/01/18 21:46:49;;;;;;;71.80;34.00;;;;;;;1.51;86.11;98316.23;209343;1294;247561;-68
2023/01/18 21:57:13;;;;;;;61.70;34.40;;;;;;;1.52;86.32;98325.26;209240;1278;140368;-62
2023/01/18 22:02:16;;;;;;;53.90;25.70;;;;;;;1.54;86.05;98314.16;208723;1294;140224;-64
2023/01/18 22:07:19;;;;;;;65.20;32.20;;;;;;;1.44;85.79;98329.75;209529;1278;140473;-65
2023/01/18 22:12:22;;;;;;;65.50;33.90;;;;;;;1.46;85.88;98334.59;210011;1286;142289;-62
2023/01/18 22:17:25;;;;;;;69.80;34.60;;;;;;;1.52;86.39;98345.05;210565;1295;140735;-68
2023/01/18 22:22:27;;;;;;;84.90;36.90;;;;;;;1.59;86.37;98352.72;210640;1286;142606;-68
2023/01/18 22:27:30;;;;;;;71.80;29.20;;;;;;;1.59;86.20;98355.88;209618;1285;139840;-64
2023/01/18 22:32:33;;;;;;;72.60;32.80;;;;;;;1.55;86.04;98365.46;208845;1292;141230;-65
2023/01/18 22:37:37;;;;;;;69.70;30.60;;;;;;;1.63;86.29;98374.16;209354;1284;141693;-61
2023/01/18 22:42:42;;;;;;;73.60;35.90;;;;;;;1.67;86.44;98369.29;208989;1284;142638;-68
2023/01/18 22:47:47;;;;;;;78.70;38.30;;;;;;;1.71;86.51;98375.26;209098;1286;140543;-65
2023/01/18 22:52:53;;;;;;;75.80;33.40;;;;;;;1.74;86.51;98382.23;209805;1285;140414;-65
2023/01/18 22:57:59;;;;;;;71.20;33.50;;;;;;;1.81;86.10;98383.85;209982;1286;141044;-67
2023/01/18 23:03:06;;;;;;;69.60;33.70;;;;;;;1.81;86.05;98387.95;209361;1285;140653;-68
2023/01/18 23:08:11;;;;;;;67.80;32.80;;;;;;;1.73;85.83;98381.10;208600;1282;140416;-66
2023/01/18 23:13:14;;;;;;;71.40;34.70;;;;;;;1.62;85.96;98385.31;209265;1289;140446;-66
2023/01/18 23:18:17;;;;;;;73.00;31.60;;;;;;;1.62;86.00;98389.72;207911;1287;140352;-65
2023/01/18 23:23:20;;;;;;;62.00;30.80;;;;;;;1.64;86.03;98395.98;208730;1291;140498;-66
2023/01/18 23:28:41;;;;;;;75.20;37.20;;;;;;;1.68;86.60;98406.99;208121;1294;140361;-64
2023/01/18 23:33:46;;;;;;;;;;;;;;;1.73;86.70;98417.24;209366;1292;139580;-65
2023/01/18 23:54:56;;;;;;;83.60;40.70;;;;;;;1.53;86.23;98445.13;207769;1291;236268;-64
2023/01/18 23:59:59;;;;;;;85.10;37.80;;;;;;;1.49;86.39;98448.10;209032;1292;141461;-63
